sensor_id;sensor_type;location;lat;lon;timestamp;temperature;humidity
74923;HTU21D;64715;44.760;37.678;2022-11-02T00:00:14;4.56;79.75
74923;HTU21D;64715;44.760;37.678;2022-11-02T00:01:22;4.57;80.01
74923;HTU21D;64715;44.760;37.678;2022-11-02T00:02:24;4.60;80.05
74923;HTU21D;64715;44.760;37.678;2022-11-02T00:03:25;4.57;79.88
74923;HTU21D;64715;44.760;37.678;2022-11-02T00:04:26;4.58;80.02
74923;HTU21D;64715;44.760;37.678;2022-11-02T00:05:27;4.57;80.15
74923;HTU21D;64715;44.760;37.678;2022-11-02T00:06:28;4.57;80.06
74923;HTU21D;64715;44.760;37.678;2022-11-02T00:07:29;4.57;80.13
74923;HTU21D;64715;44.760;37.678;2022-11-02T00:08:30;4.61;80.11
74923;HTU21D;64715;44.760;37.678;2022-11-02T00:09:31;4.59;80.02
74923;HTU21D;64715;44.760;37.678;2022-11-02T00:10:32;4.60;80.20
74923;HTU21D;64715;44.760;37.678;2022-11-02T00:11:33;4.60;80.31
74923;HTU21D;64715;44.760;37.678;2022-11-02T00:12:36;4.61;80.09
74923;HTU21D;64715;44.760;37.678;2022-11-02T00:13:37;4.63;80.09
74923;HTU21D;64715;44.760;37.678;2022-11-02T00:14:39;4.62;80.63
74923;HTU21D;64715;44.760;37.678;2022-11-02T00:15:40;4.64;80.46
74923;HTU21D;64715;44.760;37.678;2022-11-02T00:16:41;4.66;80.60
74923;HTU21D;64715;44.760;37.678;2022-11-02T00:17:47;4.66;80.87
74923;HTU21D;64715;44.760;37.678;2022-11-02T00:18:51;4.66;80.72
74923;HTU21D;64715;44.760;37.678;2022-11-02T00:19:53;4.66;80.69
74923;HTU21D;64715;44.760;37.678;2022-11-02T00:20:54;4.69;80.83
74923;HTU21D;64715;44.760;37.678;2022-11-02T00:21:56;4.71;80.83
74923;HTU21D;64715;44.760;37.678;2022-11-02T00:23:00;4.74;80.80
74923;HTU21D;64715;44.760;37.678;2022-11-02T00:24:01;4.75;81.16
74923;HTU21D;64715;44.760;37.678;2022-11-02T00:25:06;4.77;81.18
74923;HTU21D;64715;44.760;37.678;2022-11-02T00:26:08;4.79;81.02
74923;HTU21D;64715;44.760;37.678;2022-11-02T00:27:09;4.81;81.47
74923;HTU21D;64715;44.760;37.678;2022-11-02T00:28:12;4.82;81.65
74923;HTU21D;64715;44.760;37.678;2022-11-02T00:29:14;4.81;81.38
74923;HTU21D;64715;44.760;37.678;2022-11-02T00:30:15;4.83;81.36
74923;HTU21D;64715;44.760;37.678;2022-11-02T00:31:16;4.86;81.55
74923;HTU21D;64715;44.760;37.678;2022-11-02T00:32:17;4.86;81.36
74923;HTU21D;64715;44.760;37.678;2022-11-02T00:33:19;4.87;81.39
74923;HTU21D;64715;44.760;37.678;2022-11-02T00:34:19;4.89;81.30
74923;HTU21D;64715;44.760;37.678;2022-11-02T00:35:20;4.90;81.32
74923;HTU21D;64715;44.760;37.678;2022-11-02T00:36:22;4.90;81.45
74923;HTU21D;64715;44.760;37.678;2022-11-02T00:37:24;4.91;81.64
74923;HTU21D;64715;44.760;37.678;2022-11-02T00:38:25;4.94;81.36
74923;HTU21D;64715;44.760;37.678;2022-11-02T00:39:26;4.94;81.65
74923;HTU21D;64715;44.760;37.678;2022-11-02T00:40:28;4.96;81.51
74923;HTU21D;64715;44.760;37.678;2022-11-02T00:41:29;4.97;81.99
74923;HTU21D;64715;44.760;37.678;2022-11-02T00:42:30;4.98;81.65
74923;HTU21D;64715;44.760;37.678;2022-11-02T00:43:32;5.01;81.91
74923;HTU21D;64715;44.760;37.678;2022-11-02T00:44:33;5.04;82.13
74923;HTU21D;64715;44.760;37.678;2022-11-02T00:45:34;5.04;81.91
74923;HTU21D;64715;44.760;37.678;2022-11-02T00:46:36;5.05;82.07
74923;HTU21D;64715;44.760;37.678;2022-11-02T00:47:38;5.06;81.92
74923;HTU21D;64715;44.760;37.678;2022-11-02T00:48:39;5.07;81.97
74923;HTU21D;64715;44.760;37.678;2022-11-02T00:49:40;5.10;81.86
74923;HTU21D;64715;44.760;37.678;2022-11-02T00:50:43;5.11;81.91
74923;HTU21D;64715;44.760;37.678;2022-11-02T00:51:44;5.12;81.65
74923;HTU21D;64715;44.760;37.678;2022-11-02T00:52:48;5.15;81.94
74923;HTU21D;64715;44.760;37.678;2022-11-02T00:53:49;5.15;81.81
74923;HTU21D;64715;44.760;37.678;2022-11-02T00:54:50;5.16;81.42
74923;HTU21D;64715;44.760;37.678;2022-11-02T00:55:52;5.18;81.62
74923;HTU21D;64715;44.760;37.678;2022-11-02T00:56:54;5.17;81.83
74923;HTU21D;64715;44.760;37.678;2022-11-02T00:57:54;5.19;81.66
74923;HTU21D;64715;44.760;37.678;2022-11-02T00:58:56;5.21;81.99
74923;HTU21D;64715;44.760;37.678;2022-11-02T00:59:57;5.20;82.03
74923;HTU21D;64715;44.760;37.678;2022-11-02T01:01:03;5.22;82.25
74923;HTU21D;64715;44.760;37.678;2022-11-02T01:02:05;5.23;82.01
74923;HTU21D;64715;44.760;37.678;2022-11-02T01:03:07;5.23;82.21
74923;HTU21D;64715;44.760;37.678;2022-11-02T01:04:08;5.25;82.10
74923;HTU21D;64715;44.760;37.678;2022-11-02T01:05:10;5.24;82.37
74923;HTU21D;64715;44.760;37.678;2022-11-02T01:06:13;5.28;81.90
74923;HTU21D;64715;44.760;37.678;2022-11-02T01:07:14;5.31;82.16
74923;HTU21D;64715;44.760;37.678;2022-11-02T01:08:16;5.30;82.34
74923;HTU21D;64715;44.760;37.678;2022-11-02T01:09:17;5.33;82.61
74923;HTU21D;64715;44.760;37.678;2022-11-02T01:10:18;5.34;82.26
74923;HTU21D;64715;44.760;37.678;2022-11-02T01:11:22;5.33;82.48
74923;HTU21D;64715;44.760;37.678;2022-11-02T01:12:25;5.37;82.29
74923;HTU21D;64715;44.760;37.678;2022-11-02T01:13:27;5.37;82.62
74923;HTU21D;64715;44.760;37.678;2022-11-02T01:14:28;5.40;82.46
74923;HTU21D;64715;44.760;37.678;2022-11-02T01:15:30;5.42;82.52
74923;HTU21D;64715;44.760;37.678;2022-11-02T01:16:32;5.46;82.75
74923;HTU21D;64715;44.760;37.678;2022-11-02T01:17:33;5.48;82.84
74923;HTU21D;64715;44.760;37.678;2022-11-02T01:18:34;5.52;82.66
74923;HTU21D;64715;44.760;37.678;2022-11-02T01:19:35;5.56;82.84
74923;HTU21D;64715;44.760;37.678;2022-11-02T01:20:38;5.60;83.31
74923;HTU21D;64715;44.760;37.678;2022-11-02T01:21:39;5.63;82.94
74923;HTU21D;64715;44.760;37.678;2022-11-02T01:22:40;5.68;83.10
74923;HTU21D;64715;44.760;37.678;2022-11-02T01:23:41;5.71;83.31
74923;HTU21D;64715;44.760;37.678;2022-11-02T01:24:44;5.78;83.58
74923;HTU21D;64715;44.760;37.678;2022-11-02T01:25:45;5.81;83.42
74923;HTU21D;64715;44.760;37.678;2022-11-02T01:26:52;5.86;83.73
74923;HTU21D;64715;44.760;37.678;2022-11-02T01:27:53;5.86;83.65
74923;HTU21D;64715;44.760;37.678;2022-11-02T01:28:54;5.89;83.37
74923;HTU21D;64715;44.760;37.678;2022-11-02T01:29:55;5.93;83.62
74923;HTU21D;64715;44.760;37.678;2022-11-02T01:30:57;5.95;83.71
74923;HTU21D;64715;44.760;37.678;2022-11-02T01:31:58;6.00;83.67
74923;HTU21D;64715;44.760;37.678;2022-11-02T01:33:00;6.01;83.84
74923;HTU21D;64715;44.760;37.678;2022-11-02T01:34:01;6.09;83.47
74923;HTU21D;64715;44.760;37.678;2022-11-02T01:35:02;6.13;83.41
74923;HTU21D;64715;44.760;37.678;2022-11-02T01:36:05;6.17;83.36
74923;HTU21D;64715;44.760;37.678;2022-11-02T01:37:06;6.21;83.49
74923;HTU21D;64715;44.760;37.678;2022-11-02T01:38:07;6.26;83.51
74923;HTU21D;64715;44.760;37.678;2022-11-02T01:39:08;6.31;83.23
74923;HTU21D;64715;44.760;37.678;2022-11-02T01:40:09;6.34;83.52
74923;HTU21D;64715;44.760;37.678;2022-11-02T01:41:11;6.35;83.18
74923;HTU21D;64715;44.760;37.678;2022-11-02T01:42:17;6.38;82.93
74923;HTU21D;64715;44.760;37.678;2022-11-02T01:44:32;6.41;82.58
74923;HTU21D;64715;44.760;37.678;2022-11-02T01:45:33;6.42;82.56
74923;HTU21D;64715;44.760;37.678;2022-11-02T01:46:43;6.42;82.22
74923;HTU21D;64715;44.760;37.678;2022-11-02T01:47:47;6.42;82.06
74923;HTU21D;64715;44.760;37.678;2022-11-02T01:48:52;6.44;82.10
74923;HTU21D;64715;44.760;37.678;2022-11-02T01:50:03;6.46;82.14
74923;HTU21D;64715;44.760;37.678;2022-11-02T01:51:09;6.45;82.13
74923;HTU21D;64715;44.760;37.678;2022-11-02T01:52:20;6.46;82.35
74923;HTU21D;64715;44.760;37.678;2022-11-02T01:53:22;6.45;82.03
74923;HTU21D;64715;44.760;37.678;2022-11-02T01:54:27;6.44;81.83
74923;HTU21D;64715;44.760;37.678;2022-11-02T01:55:30;6.43;81.72
74923;HTU21D;64715;44.760;37.678;2022-11-02T01:56:33;6.44;81.71
74923;HTU21D;64715;44.760;37.678;2022-11-02T01:57:37;6.45;81.48
74923;HTU21D;64715;44.760;37.678;2022-11-02T01:58:41;6.43;81.48
74923;HTU21D;64715;44.760;37.678;2022-11-02T01:59:53;6.43;81.39
74923;HTU21D;64715;44.760;37.678;2022-11-02T02:00:56;6.42;81.39
74923;HTU21D;64715;44.760;37.678;2022-11-02T02:01:57;6.41;81.58
74923;HTU21D;64715;44.760;37.678;2022-11-02T02:03:08;6.42;81.93
74923;HTU21D;64715;44.760;37.678;2022-11-02T02:04:11;6.43;81.97
74923;HTU21D;64715;44.760;37.678;2022-11-02T02:05:15;6.41;81.97
74923;HTU21D;64715;44.760;37.678;2022-11-02T02:06:17;6.41;81.96
74923;HTU21D;64715;44.760;37.678;2022-11-02T02:07:19;6.42;82.14
74923;HTU21D;64715;44.760;37.678;2022-11-02T02:08:22;6.45;82.05
74923;HTU21D;64715;44.760;37.678;2022-11-02T02:09:25;6.48;82.50
74923;HTU21D;64715;44.760;37.678;2022-11-02T02:10:27;6.48;82.58
74923;HTU21D;64715;44.760;37.678;2022-11-02T02:11:33;6.48;82.52
74923;HTU21D;64715;44.760;37.678;2022-11-02T02:12:36;6.51;82.42
74923;HTU21D;64715;44.760;37.678;2022-11-02T02:13:38;6.52;82.65
74923;HTU21D;64715;44.760;37.678;2022-11-02T02:14:39;6.54;83.01
74923;HTU21D;64715;44.760;37.678;2022-11-02T02:17:23;6.59;83.20
74923;HTU21D;64715;44.760;37.678;2022-11-02T02:18:45;6.59;83.09
74923;HTU21D;64715;44.760;37.678;2022-11-02T02:21:02;6.63;82.99
74923;HTU21D;64715;44.760;37.678;2022-11-02T02:22:17;6.64;83.07
74923;HTU21D;64715;44.760;37.678;2022-11-02T02:23:28;6.65;83.06
74923;HTU21D;64715;44.760;37.678;2022-11-02T02:24:50;6.68;82.81
74923;HTU21D;64715;44.760;37.678;2022-11-02T02:27:22;6.74;83.10
74923;HTU21D;64715;44.760;37.678;2022-11-02T02:30:07;6.79;82.66
74923;HTU21D;64715;44.760;37.678;2022-11-02T02:31:35;6.79;82.46
74923;HTU21D;64715;44.760;37.678;2022-11-02T02:32:58;6.81;82.52
74923;HTU21D;64715;44.760;37.678;2022-11-02T02:34:18;6.84;82.43
74923;HTU21D;64715;44.760;37.678;2022-11-02T02:35:25;6.84;82.42
74923;HTU21D;64715;44.760;37.678;2022-11-02T02:36:33;6.86;82.39
74923;HTU21D;64715;44.760;37.678;2022-11-02T02:38:02;6.87;82.74
74923;HTU21D;64715;44.760;37.678;2022-11-02T02:39:11;6.87;82.52
74923;HTU21D;64715;44.760;37.678;2022-11-02T02:40:24;6.89;82.82
74923;HTU21D;64715;44.760;37.678;2022-11-02T02:41:38;6.89;82.59
74923;HTU21D;64715;44.760;37.678;2022-11-02T02:42:45;6.90;82.81
74923;HTU21D;64715;44.760;37.678;2022-11-02T02:43:53;6.93;82.58
74923;HTU21D;64715;44.760;37.678;2022-11-02T02:45:06;6.93;82.76
74923;HTU21D;64715;44.760;37.678;2022-11-02T02:46:18;6.90;82.62
74923;HTU21D;64715;44.760;37.678;2022-11-02T02:47:23;6.91;82.66
74923;HTU21D;64715;44.760;37.678;2022-11-02T02:48:29;6.93;82.57
74923;HTU21D;64715;44.760;37.678;2022-11-02T02:49:38;6.94;82.96
74923;HTU21D;64715;44.760;37.678;2022-11-02T02:50:49;6.95;82.84
74923;HTU21D;64715;44.760;37.678;2022-11-02T02:51:55;6.97;82.71
74923;HTU21D;64715;44.760;37.678;2022-11-02T02:52:57;6.98;82.91
74923;HTU21D;64715;44.760;37.678;2022-11-02T02:54:07;7.01;82.79
74923;HTU21D;64715;44.760;37.678;2022-11-02T02:55:15;7.04;82.82
74923;HTU21D;64715;44.760;37.678;2022-11-02T02:56:19;7.07;83.15
74923;HTU21D;64715;44.760;37.678;2022-11-02T02:57:21;7.08;82.96
74923;HTU21D;64715;44.760;37.678;2022-11-02T02:58:28;7.10;83.02
74923;HTU21D;64715;44.760;37.678;2022-11-02T02:59:33;7.10;83.04
74923;HTU21D;64715;44.760;37.678;2022-11-02T03:00:37;7.11;83.00
74923;HTU21D;64715;44.760;37.678;2022-11-02T03:01:40;7.12;82.55
74923;HTU21D;64715;44.760;37.678;2022-11-02T03:02:44;7.10;82.45
74923;HTU21D;64715;44.760;37.678;2022-11-02T03:04:00;7.08;82.39
74923;HTU21D;64715;44.760;37.678;2022-11-02T03:05:21;7.07;82.60
74923;HTU21D;64715;44.760;37.678;2022-11-02T03:06:31;7.02;82.35
74923;HTU21D;64715;44.760;37.678;2022-11-02T03:07:35;6.99;82.49
74923;HTU21D;64715;44.760;37.678;2022-11-02T03:08:42;6.97;82.29
74923;HTU21D;64715;44.760;37.678;2022-11-02T03:10:11;6.96;82.18
74923;HTU21D;64715;44.760;37.678;2022-11-02T03:11:18;6.93;82.27
74923;HTU21D;64715;44.760;37.678;2022-11-02T03:15:29;6.87;82.35
74923;HTU21D;64715;44.760;37.678;2022-11-02T03:20:25;6.73;82.32
74923;HTU21D;64715;44.760;37.678;2022-11-02T03:21:59;6.71;82.39
74923;HTU21D;64715;44.760;37.678;2022-11-02T03:23:16;6.67;82.41
74923;HTU21D;64715;44.760;37.678;2022-11-02T03:26:17;6.61;82.30
74923;HTU21D;64715;44.760;37.678;2022-11-02T03:27:34;6.59;82.49
74923;HTU21D;64715;44.760;37.678;2022-11-02T03:30:00;6.56;82.71
74923;HTU21D;64715;44.760;37.678;2022-11-02T03:31:16;6.55;82.47
74923;HTU21D;64715;44.760;37.678;2022-11-02T03:32:25;6.55;83.02
74923;HTU21D;64715;44.760;37.678;2022-11-02T03:33:34;6.53;83.04
74923;HTU21D;64715;44.760;37.678;2022-11-02T03:34:48;6.55;83.03
74923;HTU21D;64715;44.760;37.678;2022-11-02T03:35:58;6.53;83.17
74923;HTU21D;64715;44.760;37.678;2022-11-02T03:37:13;6.54;83.75
74923;HTU21D;64715;44.760;37.678;2022-11-02T03:38:27;6.56;83.60
74923;HTU21D;64715;44.760;37.678;2022-11-02T03:39:41;6.57;83.78
74923;HTU21D;64715;44.760;37.678;2022-11-02T03:40:45;6.59;83.74
74923;HTU21D;64715;44.760;37.678;2022-11-02T03:41:48;6.60;83.87
74923;HTU21D;64715;44.760;37.678;2022-11-02T03:42:52;6.63;84.12
74923;HTU21D;64715;44.760;37.678;2022-11-02T03:44:00;6.66;84.00
74923;HTU21D;64715;44.760;37.678;2022-11-02T03:45:09;6.67;84.61
74923;HTU21D;64715;44.760;37.678;2022-11-02T03:46:15;6.70;84.45
74923;HTU21D;64715;44.760;37.678;2022-11-02T03:47:19;6.71;84.39
74923;HTU21D;64715;44.760;37.678;2022-11-02T03:48:24;6.71;84.72
74923;HTU21D;64715;44.760;37.678;2022-11-02T03:49:28;6.71;84.52
74923;HTU21D;64715;44.760;37.678;2022-11-02T03:50:31;6.73;84.74
74923;HTU21D;64715;44.760;37.678;2022-11-02T03:51:34;6.76;84.49
74923;HTU21D;64715;44.760;37.678;2022-11-02T03:52:40;6.79;84.46
74923;HTU21D;64715;44.760;37.678;2022-11-02T03:54:12;6.82;84.82
74923;HTU21D;64715;44.760;37.678;2022-11-02T03:55:21;6.81;84.47
74923;HTU21D;64715;44.760;37.678;2022-11-02T03:56:32;6.83;84.21
74923;HTU21D;64715;44.760;37.678;2022-11-02T03:57:47;6.84;84.73
74923;HTU21D;64715;44.760;37.678;2022-11-02T03:58:51;6.85;84.52
74923;HTU21D;64715;44.760;37.678;2022-11-02T03:59:53;6.86;84.26
74923;HTU21D;64715;44.760;37.678;2022-11-02T04:01:16;6.86;84.39
74923;HTU21D;64715;44.760;37.678;2022-11-02T04:02:18;6.90;84.66
74923;HTU21D;64715;44.760;37.678;2022-11-02T04:03:22;6.91;84.35
74923;HTU21D;64715;44.760;37.678;2022-11-02T04:04:23;6.90;84.57
74923;HTU21D;64715;44.760;37.678;2022-11-02T04:05:33;6.91;84.37
74923;HTU21D;64715;44.760;37.678;2022-11-02T04:06:40;6.91;84.41
74923;HTU21D;64715;44.760;37.678;2022-11-02T04:07:45;6.93;84.02
74923;HTU21D;64715;44.760;37.678;2022-11-02T04:09:07;6.94;84.32
74923;HTU21D;64715;44.760;37.678;2022-11-02T04:10:09;6.91;84.35
74923;HTU21D;64715;44.760;37.678;2022-11-02T04:11:10;6.94;84.28
74923;HTU21D;64715;44.760;37.678;2022-11-02T04:12:35;6.90;84.46
74923;HTU21D;64715;44.760;37.678;2022-11-02T04:13:55;6.94;83.96
74923;HTU21D;64715;44.760;37.678;2022-11-02T04:15:17;6.91;84.42
74923;HTU21D;64715;44.760;37.678;2022-11-02T04:16:17;6.94;84.13
74923;HTU21D;64715;44.760;37.678;2022-11-02T04:17:19;6.95;84.73
74923;HTU21D;64715;44.760;37.678;2022-11-02T04:18:44;6.97;84.43
74923;HTU21D;64715;44.760;37.678;2022-11-02T04:20:05;6.96;84.46
74923;HTU21D;64715;44.760;37.678;2022-11-02T04:21:06;6.97;84.67
74923;HTU21D;64715;44.760;37.678;2022-11-02T04:22:07;6.99;84.71
74923;HTU21D;64715;44.760;37.678;2022-11-02T04:23:33;6.99;84.48
74923;HTU21D;64715;44.760;37.678;2022-11-02T04:24:52;7.02;84.54
74923;HTU21D;64715;44.760;37.678;2022-11-02T04:26:13;7.04;84.85
74923;HTU21D;64715;44.760;37.678;2022-11-02T04:27:17;7.05;84.64
74923;HTU21D;64715;44.760;37.678;2022-11-02T04:28:19;7.09;84.87
74923;HTU21D;64715;44.760;37.678;2022-11-02T04:29:28;7.13;84.95
74923;HTU21D;64715;44.760;37.678;2022-11-02T04:30:29;7.15;84.77
74923;HTU21D;64715;44.760;37.678;2022-11-02T04:31:33;7.18;85.00
74923;HTU21D;64715;44.760;37.678;2022-11-02T04:32:41;7.24;85.09
74923;HTU21D;64715;44.760;37.678;2022-11-02T04:34:05;7.28;84.71
74923;HTU21D;64715;44.760;37.678;2022-11-02T04:35:07;7.30;84.59
74923;HTU21D;64715;44.760;37.678;2022-11-02T04:36:08;7.35;84.73
74923;HTU21D;64715;44.760;37.678;2022-11-02T04:37:11;7.39;85.24
74923;HTU21D;64715;44.760;37.678;2022-11-02T04:38:38;7.44;84.74
74923;HTU21D;64715;44.760;37.678;2022-11-02T04:40:03;7.48;84.54
74923;HTU21D;64715;44.760;37.678;2022-11-02T04:41:05;7.53;84.87
74923;HTU21D;64715;44.760;37.678;2022-11-02T04:42:26;7.60;84.61
74923;HTU21D;64715;44.760;37.678;2022-11-02T04:43:31;7.65;84.71
74923;HTU21D;64715;44.760;37.678;2022-11-02T04:44:32;7.72;84.71
74923;HTU21D;64715;44.760;37.678;2022-11-02T04:45:40;7.78;84.71
74923;HTU21D;64715;44.760;37.678;2022-11-02T04:46:42;7.84;85.12
74923;HTU21D;64715;44.760;37.678;2022-11-02T04:47:44;7.92;84.63
74923;HTU21D;64715;44.760;37.678;2022-11-02T04:48:46;7.96;84.66
74923;HTU21D;64715;44.760;37.678;2022-11-02T04:49:47;8.04;84.58
74923;HTU21D;64715;44.760;37.678;2022-11-02T04:50:51;8.08;84.46
74923;HTU21D;64715;44.760;37.678;2022-11-02T04:51:52;8.15;84.54
74923;HTU21D;64715;44.760;37.678;2022-11-02T04:52:57;8.22;84.30
74923;HTU21D;64715;44.760;37.678;2022-11-02T04:53:59;8.29;84.29
74923;HTU21D;64715;44.760;37.678;2022-11-02T04:55:01;8.34;84.63
74923;HTU21D;64715;44.760;37.678;2022-11-02T04:56:03;8.38;84.33
74923;HTU21D;64715;44.760;37.678;2022-11-02T04:57:05;8.45;84.09
74923;HTU21D;64715;44.760;37.678;2022-11-02T04:58:07;8.51;84.11
74923;HTU21D;64715;44.760;37.678;2022-11-02T04:59:08;8.57;83.96
74923;HTU21D;64715;44.760;37.678;2022-11-02T05:00:11;8.62;83.99
74923;HTU21D;64715;44.760;37.678;2022-11-02T05:01:14;8.67;84.19
74923;HTU21D;64715;44.760;37.678;2022-11-02T05:02:17;8.73;84.01
74923;HTU21D;64715;44.760;37.678;2022-11-02T05:03:18;8.76;83.89
74923;HTU21D;64715;44.760;37.678;2022-11-02T05:04:19;8.80;83.48
74923;HTU21D;64715;44.760;37.678;2022-11-02T05:05:22;8.86;83.75
74923;HTU21D;64715;44.760;37.678;2022-11-02T05:06:25;8.89;83.82
74923;HTU21D;64715;44.760;37.678;2022-11-02T05:07:28;8.93;83.84
74923;HTU21D;64715;44.760;37.678;2022-11-02T05:08:30;8.95;83.50
74923;HTU21D;64715;44.760;37.678;2022-11-02T05:09:31;9.01;83.62
74923;HTU21D;64715;44.760;37.678;2022-11-02T05:10:33;9.07;83.53
74923;HTU21D;64715;44.760;37.678;2022-11-02T05:11:34;9.09;83.62
74923;HTU21D;64715;44.760;37.678;2022-11-02T05:12:35;9.14;83.31
74923;HTU21D;64715;44.760;37.678;2022-11-02T05:13:39;9.21;83.17
74923;HTU21D;64715;44.760;37.678;2022-11-02T05:14:41;9.23;83.12
74923;HTU21D;64715;44.760;37.678;2022-11-02T05:15:42;9.26;83.11
74923;HTU21D;64715;44.760;37.678;2022-11-02T05:16:43;9.32;82.81
74923;HTU21D;64715;44.760;37.678;2022-11-02T05:17:47;9.38;83.45
74923;HTU21D;64715;44.760;37.678;2022-11-02T05:18:48;9.38;83.36
74923;HTU21D;64715;44.760;37.678;2022-11-02T05:19:50;9.45;83.19
74923;HTU21D;64715;44.760;37.678;2022-11-02T05:20:53;9.47;82.68
74923;HTU21D;64715;44.760;37.678;2022-11-02T05:21:58;9.51;82.67
74923;HTU21D;64715;44.760;37.678;2022-11-02T05:23:00;9.55;82.57
74923;HTU21D;64715;44.760;37.678;2022-11-02T05:24:02;9.61;82.53
74923;HTU21D;64715;44.760;37.678;2022-11-02T05:25:03;9.65;82.46
74923;HTU21D;64715;44.760;37.678;2022-11-02T05:26:08;9.69;82.22
74923;HTU21D;64715;44.760;37.678;2022-11-02T05:27:11;9.74;82.13
74923;HTU21D;64715;44.760;37.678;2022-11-02T05:28:14;9.77;81.91
74923;HTU21D;64715;44.760;37.678;2022-11-02T05:29:17;9.82;82.12
74923;HTU21D;64715;44.760;37.678;2022-11-02T05:30:18;9.85;81.94
74923;HTU21D;64715;44.760;37.678;2022-11-02T05:31:18;9.88;81.85
74923;HTU21D;64715;44.760;37.678;2022-11-02T05:32:20;9.91;81.75
74923;HTU21D;64715;44.760;37.678;2022-11-02T05:33:21;9.96;81.51
74923;HTU21D;64715;44.760;37.678;2022-11-02T05:34:22;10.00;81.52
74923;HTU21D;64715;44.760;37.678;2022-11-02T05:35:23;10.05;80.88
74923;HTU21D;64715;44.760;37.678;2022-11-02T05:36:24;10.12;80.40
74923;HTU21D;64715;44.760;37.678;2022-11-02T05:37:26;10.18;79.99
74923;HTU21D;64715;44.760;37.678;2022-11-02T05:38:28;10.21;80.07
74923;HTU21D;64715;44.760;37.678;2022-11-02T05:39:29;10.25;79.91
74923;HTU21D;64715;44.760;37.678;2022-11-02T05:40:30;10.30;79.52
74923;HTU21D;64715;44.760;37.678;2022-11-02T05:41:34;10.37;79.75
74923;HTU21D;64715;44.760;37.678;2022-11-02T05:42:36;10.43;79.44
74923;HTU21D;64715;44.760;37.678;2022-11-02T05:43:36;10.51;79.17
74923;HTU21D;64715;44.760;37.678;2022-11-02T05:44:40;10.58;79.13
74923;HTU21D;64715;44.760;37.678;2022-11-02T05:45:41;10.66;79.54
74923;HTU21D;64715;44.760;37.678;2022-11-02T05:46:42;10.75;79.45
74923;HTU21D;64715;44.760;37.678;2022-11-02T05:47:43;10.87;78.80
74923;HTU21D;64715;44.760;37.678;2022-11-02T05:48:44;10.97;78.49
74923;HTU21D;64715;44.760;37.678;2022-11-02T05:49:45;11.08;78.54
74923;HTU21D;64715;44.760;37.678;2022-11-02T05:50:46;11.19;78.38
74923;HTU21D;64715;44.760;37.678;2022-11-02T05:51:47;11.29;78.09
74923;HTU21D;64715;44.760;37.678;2022-11-02T05:52:49;11.44;78.14
74923;HTU21D;64715;44.760;37.678;2022-11-02T05:53:50;11.59;77.79
74923;HTU21D;64715;44.760;37.678;2022-11-02T05:54:51;11.79;77.53
74923;HTU21D;64715;44.760;37.678;2022-11-02T05:55:56;11.99;77.02
74923;HTU21D;64715;44.760;37.678;2022-11-02T05:56:57;12.16;76.49
74923;HTU21D;64715;44.760;37.678;2022-11-02T05:57:58;12.29;75.88
74923;HTU21D;64715;44.760;37.678;2022-11-02T05:59:00;12.36;75.28
74923;HTU21D;64715;44.760;37.678;2022-11-02T06:00:02;12.47;74.74
74923;HTU21D;64715;44.760;37.678;2022-11-02T06:01:13;12.49;74.28
74923;HTU21D;64715;44.760;37.678;2022-11-02T06:02:13;12.57;73.88
74923;HTU21D;64715;44.760;37.678;2022-11-02T06:03:15;12.60;73.56
74923;HTU21D;64715;44.760;37.678;2022-11-02T06:04:17;12.65;73.74
74923;HTU21D;64715;44.760;37.678;2022-11-02T06:05:18;12.67;73.14
74923;HTU21D;64715;44.760;37.678;2022-11-02T06:06:19;12.74;73.34
74923;HTU21D;64715;44.760;37.678;2022-11-02T06:07:21;12.76;73.09
74923;HTU21D;64715;44.760;37.678;2022-11-02T06:08:22;12.84;73.20
74923;HTU21D;64715;44.760;37.678;2022-11-02T06:09:23;12.92;73.23
74923;HTU21D;64715;44.760;37.678;2022-11-02T06:10:24;12.97;73.19
74923;HTU21D;64715;44.760;37.678;2022-11-02T06:11:25;13.05;73.09
74923;HTU21D;64715;44.760;37.678;2022-11-02T06:12:26;13.14;72.95
74923;HTU21D;64715;44.760;37.678;2022-11-02T06:13:27;13.24;72.86
74923;HTU21D;64715;44.760;37.678;2022-11-02T06:14:28;13.38;72.94
74923;HTU21D;64715;44.760;37.678;2022-11-02T06:15:31;13.58;72.77
74923;HTU21D;64715;44.760;37.678;2022-11-02T06:16:32;13.70;72.67
74923;HTU21D;64715;44.760;37.678;2022-11-02T06:17:40;13.91;71.77
74923;HTU21D;64715;44.760;37.678;2022-11-02T06:18:41;14.10;71.55
74923;HTU21D;64715;44.760;37.678;2022-11-02T06:19:42;14.28;70.94
74923;HTU21D;64715;44.760;37.678;2022-11-02T06:20:43;14.47;70.13
74923;HTU21D;64715;44.760;37.678;2022-11-02T06:21:44;14.60;69.08
74923;HTU21D;64715;44.760;37.678;2022-11-02T06:22:45;14.72;68.82
74923;HTU21D;64715;44.760;37.678;2022-11-02T06:23:47;14.85;68.49
74923;HTU21D;64715;44.760;37.678;2022-11-02T06:24:48;14.99;67.77
74923;HTU21D;64715;44.760;37.678;2022-11-02T06:25:56;15.10;67.07
74923;HTU21D;64715;44.760;37.678;2022-11-02T06:26:58;15.21;66.86
74923;HTU21D;64715;44.760;37.678;2022-11-02T06:27:59;15.27;66.39
74923;HTU21D;64715;44.760;37.678;2022-11-02T06:29:03;15.34;65.79
74923;HTU21D;64715;44.760;37.678;2022-11-02T06:30:05;15.38;65.22
74923;HTU21D;64715;44.760;37.678;2022-11-02T06:31:06;15.41;65.49
74923;HTU21D;64715;44.760;37.678;2022-11-02T06:32:07;15.42;64.70
74923;HTU21D;64715;44.760;37.678;2022-11-02T06:33:08;15.45;64.47
74923;HTU21D;64715;44.760;37.678;2022-11-02T06:34:09;15.44;64.41
74923;HTU21D;64715;44.760;37.678;2022-11-02T06:35:11;15.47;64.13
74923;HTU21D;64715;44.760;37.678;2022-11-02T06:36:13;15.46;63.77
74923;HTU21D;64715;44.760;37.678;2022-11-02T06:37:14;15.47;63.62
74923;HTU21D;64715;44.760;37.678;2022-11-02T06:38:15;15.46;63.98
74923;HTU21D;64715;44.760;37.678;2022-11-02T06:39:16;15.47;63.65
74923;HTU21D;64715;44.760;37.678;2022-11-02T06:40:17;15.47;63.89
74923;HTU21D;64715;44.760;37.678;2022-11-02T06:41:18;15.52;64.07
74923;HTU21D;64715;44.760;37.678;2022-11-02T06:42:19;15.58;64.24
74923;HTU21D;64715;44.760;37.678;2022-11-02T06:43:20;15.67;64.20
74923;HTU21D;64715;44.760;37.678;2022-11-02T06:44:21;15.76;64.50
74923;HTU21D;64715;44.760;37.678;2022-11-02T06:45:23;15.85;64.12
74923;HTU21D;64715;44.760;37.678;2022-11-02T06:46:24;15.93;64.46
74923;HTU21D;64715;44.760;37.678;2022-11-02T06:47:29;16.06;64.53
74923;HTU21D;64715;44.760;37.678;2022-11-02T06:48:31;16.21;64.58
74923;HTU21D;64715;44.760;37.678;2022-11-02T06:49:32;16.35;64.20
74923;HTU21D;64715;44.760;37.678;2022-11-02T06:50:33;16.45;63.66
74923;HTU21D;64715;44.760;37.678;2022-11-02T06:51:34;16.49;62.98
74923;HTU21D;64715;44.760;37.678;2022-11-02T06:52:44;16.50;62.38
74923;HTU21D;64715;44.760;37.678;2022-11-02T06:53:45;16.46;62.50
74923;HTU21D;64715;44.760;37.678;2022-11-02T06:54:46;16.42;62.00
74923;HTU21D;64715;44.760;37.678;2022-11-02T06:55:54;16.37;61.99
74923;HTU21D;64715;44.760;37.678;2022-11-02T06:56:55;16.30;62.08
74923;HTU21D;64715;44.760;37.678;2022-11-02T06:57:56;16.24;61.86